Time;durP1;ratioP1;P1;durP2;ratioP2;P2;SDS_P1;SDS_P2;PMS_P1;PMS_P2;Temp;Humidity;BMP_temperature;BMP_pressure;BME280_temperature;BME280_humidity;BME280_pressure;Samples;Min_cycle;Max_cycle;Signal;HPM_P1;HPM_P2
2022/12/13 00:01:12;;;;;;;5.00;3.90;;;15.30;38.20;;;;;;5086671;27;45229;-76
2022/12/13 00:03:38;;;;;;;4.97;3.92;;;15.20;38.20;;;;;;5086799;27;46690;-76
2022/12/13 00:06:06;;;;;;;5.47;4.00;;;15.30;38.20;;;;;;5086741;27;45343;-76
2022/12/13 00:08:32;;;;;;;4.63;3.95;;;15.30;38.10;;;;;;5086828;28;45300;-76
2022/12/13 00:11:00;;;;;;;4.70;3.83;;;15.30;38.00;;;;;;5087316;27;45188;-76
2022/12/13 00:13:28;;;;;;;5.18;3.80;;;15.30;37.90;;;;;;5086781;27;45535;-77
2022/12/13 00:15:58;;;;;;;5.68;3.85;;;15.30;37.80;;;;;;5086816;27;45331;-77
2022/12/13 00:18:25;;;;;;;4.05;3.53;;;15.40;37.80;;;;;;5087374;27;45197;-77
2022/12/13 00:20:51;;;;;;;5.38;4.15;;;15.50;37.80;;;;;;5087796;27;45255;-76
2022/12/13 00:23:18;;;;;;;5.50;4.22;;;15.50;37.60;;;;;;5087285;27;46486;-76
2022/12/13 00:25:46;;;;;;;5.80;4.28;;;15.50;37.50;;;;;;5088098;27;45333;-76
2022/12/13 00:28:13;;;;;;;5.25;3.88;;;15.50;37.50;;;;;;5087579;27;45192;-76
2022/12/13 00:30:41;;;;;;;4.38;3.53;;;15.50;38.10;;;;;;5087871;27;45196;-76
2022/12/13 00:33:08;;;;;;;5.05;3.58;;;15.50;37.40;;;;;;5087508;27;46597;-76
2022/12/13 00:35:39;;;;;;;3.97;3.47;;;15.50;37.30;;;;;;5087486;27;45345;-77
2022/12/13 00:38:06;;;;;;;4.78;4.00;;;15.50;37.30;;;;;;5087942;27;45587;-77
2022/12/13 00:40:33;;;;;;;4.85;3.80;;;15.50;37.20;;;;;;5087717;27;45404;-76
2022/12/13 00:43:00;;;;;;;4.30;3.45;;;15.50;37.30;;;;;;5087617;27;46848;-77
2022/12/13 00:45:27;;;;;;;4.40;3.65;;;15.50;37.20;;;;;;5087290;27;45252;-77
2022/12/13 00:47:55;;;;;;;5.22;3.53;;;15.50;37.20;;;;;;5070979;27;45146;-76
2022/12/13 00:50:22;;;;;;;4.15;3.55;;;15.50;37.30;;;;;;5081152;28;45328;-76
2022/12/13 00:52:49;;;;;;;4.30;3.58;;;15.50;37.30;;;;;;5085990;27;46654;-77
2022/12/13 00:55:16;;;;;;;5.00;3.88;;;15.40;37.30;;;;;;5086355;28;45293;-76
2022/12/13 00:57:43;;;;;;;4.55;3.53;;;15.40;37.30;;;;;;5086258;28;45310;-76
2022/12/13 01:00:10;;;;;;;5.63;4.10;;;15.40;38.00;;;;;;5086645;27;45178;-77
2022/12/13 01:02:37;;;;;;;5.25;3.60;;;15.30;37.40;;;;;;5086284;28;46864;-76
2022/12/13 01:05:06;;;;;;;4.45;3.35;;;15.30;37.50;;;;;;5086382;27;45302;-77
2022/12/13 01:07:33;;;;;;;4.25;3.58;;;15.30;37.50;;;;;;5086242;28;45292;-77
2022/12/13 01:10:00;;;;;;;5.80;4.03;;;15.30;37.50;;;;;;5086661;27;45187;-76
2022/12/13 01:12:27;;;;;;;4.40;3.75;;;15.30;37.40;;;;;;5086093;28;45257;-76
2022/12/13 01:14:54;;;;;;;5.35;3.67;;;15.30;37.50;;;;;;5086092;27;45338;-76
2022/12/13 01:17:21;;;;;;;4.40;3.65;;;15.30;37.40;;;;;;5086219;27;45290;-77
2022/12/13 01:19:47;;;;;;;4.25;3.40;;;15.30;37.40;;;;;;5090068;27;45188;-77
2022/12/13 01:22:16;;;;;;;4.82;3.55;;;15.40;37.40;;;;;;5089666;27;46520;-77
2022/12/13 01:24:42;;;;;;;4.68;3.83;;;15.40;37.20;;;;;;5089707;27;45453;-76
2022/12/13 01:27:09;;;;;;;4.85;3.63;;;15.40;37.10;;;;;;5090039;27;45276;-76
2022/12/13 01:29:36;;;;;;;4.10;3.63;;;15.50;37.10;;;;;;5089004;27;45446;-77
2022/12/13 01:32:03;;;;;;;5.47;4.15;;;15.50;37.00;;;;;;5089361;27;46499;-76
2022/12/13 01:34:30;;;;;;;5.38;3.85;;;15.50;37.00;;;;;;5089147;27;45184;-76
2022/12/13 01:36:57;;;;;;;5.63;3.95;;;15.50;37.50;;;;;;5089443;27;45398;-77
2022/12/13 01:39:25;;;;;;;5.05;3.60;;;15.50;36.90;;;;;;5089557;27;45462;-76
2022/12/13 01:41:58;;;;;;;6.07;3.50;;;15.50;36.80;;;;;;5089147;27;47648;-76
2022/12/13 01:44:57;;;;;;;4.65;3.45;;;15.50;36.80;;;;;;5089127;27;45371;-77
2022/12/13 01:47:26;;;;;;;6.47;4.03;;;15.50;36.80;;;;;;5077319;27;45277;-77
2022/12/13 01:49:53;;;;;;;4.05;3.10;;;15.50;36.70;;;;;;5079584;28;45513;-76
2022/12/13 01:52:20;;;;;;;5.57;3.78;;;15.50;36.70;;;;;;5088910;27;46614;-77
2022/12/13 01:54:50;;;;;;;4.00;3.35;;;15.50;36.70;;;;;;5088898;27;45251;-76
2022/12/13 01:57:17;;;;;;;5.40;4.13;;;15.50;36.70;;;;;;5089152;27;45253;-76
2022/12/13 01:59:44;;;;;;;4.80;4.00;;;15.50;36.70;;;;;;5089188;27;45376;-76
2022/12/13 02:02:12;;;;;;;4.15;3.75;;;15.50;36.70;;;;;;5088805;27;45287;-76
2022/12/13 02:04:41;;;;;;;4.60;3.88;;;15.50;36.70;;;;;;5088738;27;45192;-76
2022/12/13 02:07:07;;;;;;;4.63;3.60;;;15.50;36.70;;;;;;5088884;27;45473;-76
2022/12/13 02:09:34;;;;;;;5.43;3.90;;;15.50;37.30;;;;;;5089360;27;45298;-76
2022/12/13 02:12:03;;;;;;;4.20;3.75;;;15.40;36.70;;;;;;5088559;27;46738;-77
2022/12/13 02:14:30;;;;;;;5.07;4.28;;;15.40;36.80;;;;;;5088742;27;45212;-76
2022/12/13 02:16:59;;;;;;;5.95;4.22;;;15.30;36.80;;;;;;5088682;27;45221;-76
2022/12/13 02:20:05;;;;;;;4.55;3.70;;;15.30;36.90;;;;;;5088861;27;45469;-76
2022/12/13 02:22:46;;;;;;;4.93;3.60;;;15.30;36.90;;;;;;5088323;27;45265;-76
2022/12/13 02:25:36;;;;;;;4.32;3.70;;;15.30;36.90;;;;;;5088431;27;45445;-76
2022/12/13 02:28:13;;;;;;;5.63;3.90;;;15.30;36.90;;;;;;5088401;27;45203;-76
2022/12/13 02:30:42;;;;;;;5.15;3.60;;;15.30;36.80;;;;;;5088733;27;45124;-77
2022/12/13 02:33:19;;;;;;;5.18;3.45;;;15.30;36.80;;;;;;5088271;27;46405;-76
2022/12/13 02:35:49;;;;;;;5.55;4.03;;;15.30;36.80;;;;;;5088209;27;45322;-77
2022/12/13 02:38:18;;;;;;;5.25;3.75;;;15.30;36.70;;;;;;5088496;27;45323;-76
2022/12/13 02:40:46;;;;;;;3.92;3.53;;;15.40;36.70;;;;;;5088443;27;45521;-76
2022/12/13 02:43:15;;;;;;;5.32;3.75;;;15.40;36.70;;;;;;5087963;27;45459;-77
2022/12/13 02:45:45;;;;;;;4.25;3.63;;;15.40;36.60;;;;;;5088183;27;45304;-77
2022/12/13 02:48:13;;;;;;;5.07;3.72;;;15.50;36.50;;;;;;5069717;27;45323;-76
2022/12/13 02:50:39;;;;;;;4.72;4.03;;;15.50;36.50;;;;;;5085184;28;45445;-76
2022/12/13 02:53:06;;;;;;;5.57;3.80;;;15.50;36.50;;;;;;5087963;27;45252;-76
2022/12/13 02:55:35;;;;;;;5.05;3.80;;;15.50;36.40;;;;;;5088013;27;45369;-77
2022/12/13 02:58:02;;;;;;;4.47;3.55;;;15.50;36.40;;;;;;5087321;27;45279;-77
2022/12/13 03:00:34;;;;;;;4.90;3.83;;;15.50;36.30;;;;;;5088379;27;45463;-76
2022/12/13 03:03:11;;;;;;;5.25;3.88;;;15.50;36.30;;;;;;5087726;27;45356;-77
2022/12/13 03:08:31;;;;;;;4.18;3.40;;;15.50;36.20;;;;;;5087450;28;45205;-76
2022/12/13 03:11:03;;;;;;;4.50;3.45;;;15.50;36.20;;;;;;5087401;27;45311;-76
2022/12/13 03:13:36;;;;;;;4.43;3.65;;;15.50;36.30;;;;;;5087374;27;45636;-76
2022/12/13 03:16:19;;;;;;;5.13;3.78;;;15.50;36.90;;;;;;5087690;27;45336;-76
2022/12/13 03:18:48;;;;;;;6.25;4.15;;;15.40;36.30;;;;;;5084814;27;45218;-77
2022/12/13 03:21:14;;;;;;;5.70;4.03;;;15.40;36.30;;;;;;5088018;28;45388;-76
2022/12/13 03:23:41;;;;;;;5.55;4.30;;;15.30;36.40;;;;;;5087542;27;45307;-76
2022/12/13 03:26:10;;;;;;;5.85;3.92;;;15.30;36.50;;;;;;5087654;27;45237;-76
2022/12/13 03:28:37;;;;;;;6.38;4.65;;;15.30;36.60;;;;;;5087561;27;45150;-76
2022/12/13 03:31:04;;;;;;;4.90;4.20;;;15.30;36.60;;;;;;5087823;27;45343;-76
2022/12/13 03:33:30;;;;;;;5.32;4.13;;;15.30;36.60;;;;;;5087260;27;46814;-76
2022/12/13 03:35:59;;;;;;;6.35;4.43;;;15.20;36.50;;;;;;5087531;27;45347;-76
2022/12/13 03:38:26;;;;;;;4.80;3.80;;;15.30;36.60;;;;;;5087296;27;45279;-76
2022/12/13 03:40:53;;;;;;;5.50;4.30;;;15.30;37.20;;;;;;5087096;27;45499;-77
2022/12/13 03:43:20;;;;;;;7.88;4.30;;;15.30;36.50;;;;;;5087155;27;46703;-76
2022/12/13 03:45:47;;;;;;;4.68;3.83;;;15.30;36.40;;;;;;5087118;27;45281;-77
2022/12/13 03:48:14;;;;;;;6.53;3.92;;;15.30;36.30;;;;;;5068525;27;45196;-76
2022/12/13 03:50:41;;;;;;;5.30;3.72;;;15.30;36.30;;;;;;5084495;28;45319;-76
2022/12/13 03:53:10;;;;;;;4.18;3.28;;;15.40;36.90;;;;;;5086814;27;45375;-78
2022/12/13 03:55:36;;;;;;;4.13;3.63;;;15.40;36.20;;;;;;5087158;27;45338;-76
2022/12/13 03:58:03;;;;;;;4.53;3.80;;;15.40;36.10;;;;;;5087381;27;45184;-76
2022/12/13 04:00:30;;;;;;;5.22;4.25;;;15.50;36.20;;;;;;5087156;27;45126;-77
2022/12/13 04:02:57;;;;;;;5.13;3.92;;;15.50;36.10;;;;;;5086186;27;45320;-76
2022/12/13 04:05:24;;;;;;;5.53;4.07;;;15.50;36.10;;;;;;5086959;27;45334;-77
2022/12/13 04:07:50;;;;;;;5.30;4.25;;;15.50;36.10;;;;;;5087162;27;45335;-76
2022/12/13 04:10:19;;;;;;;5.55;4.13;;;15.50;36.00;;;;;;5087348;27;45249;-76
2022/12/13 04:15:30;;;;;;;6.45;4.30;;;15.50;36.00;;;;;;5084270;28;45179;-77
2022/12/13 04:17:57;;;;;;;5.50;4.07;;;15.50;36.00;;;;;;5086963;27;45233;-76
2022/12/13 04:20:23;;;;;;;4.82;4.00;;;15.50;36.00;;;;;;5086986;27;45425;-76
2022/12/13 04:22:50;;;;;;;5.45;4.47;;;15.50;35.90;;;;;;5086684;27;46723;-76
2022/12/13 04:25:19;;;;;;;5.45;4.07;;;15.50;36.00;;;;;;5086600;27;45411;-76
2022/12/13 04:27:46;;;;;;;5.80;4.60;;;15.50;36.00;;;;;;5086770;27;45134;-76
2022/12/13 04:30:13;;;;;;;6.47;4.45;;;15.40;36.00;;;;;;5086954;28;45428;-76
2022/12/13 04:32:40;;;;;;;5.05;4.32;;;15.40;36.10;;;;;;5086852;27;47401;-77
2022/12/13 04:35:07;;;;;;;5.20;3.83;;;15.30;36.10;;;;;;5086669;27;45410;-77
2022/12/13 04:37:34;;;;;;;5.68;4.78;;;15.30;36.20;;;;;;5086606;27;45276;-76
2022/12/13 04:40:01;;;;;;;5.43;4.10;;;15.30;36.30;;;;;;5086705;27;45403;-76
2022/12/13 04:42:30;;;;;;;6.22;4.32;;;15.30;36.30;;;;;;5086450;27;46713;-76
2022/12/13 04:44:57;;;;;;;6.07;4.20;;;15.30;36.30;;;;;;5086375;27;45387;-77
2022/12/13 04:47:30;;;;;;;6.22;4.32;;;15.30;36.30;;;;;;5075037;27;45232;-76
2022/12/13 04:49:57;;;;;;;7.60;4.95;;;15.30;36.20;;;;;;5078017;28;45294;-76
2022/12/13 04:52:24;;;;;;;5.38;4.30;;;15.30;36.20;;;;;;5085982;27;46847;-76
2022/12/13 04:54:51;;;;;;;6.30;4.60;;;15.30;36.10;;;;;;5089578;27;45251;-76
2022/12/13 04:57:18;;;;;;;6.35;4.50;;;15.30;36.00;;;;;;5090275;28;45189;-76
2022/12/13 04:59:46;;;;;;;5.43;4.25;;;15.40;36.00;;;;;;5090546;27;45404;-76
2022/12/13 05:02:13;;;;;;;6.15;4.60;;;15.40;35.90;;;;;;5090070;27;46685;-76
2022/12/13 05:04:39;;;;;;;5.55;4.43;;;15.40;35.80;;;;;;5090369;27;45255;-76
2022/12/13 05:07:06;;;;;;;5.65;4.90;;;15.50;35.90;;;;;;5089756;27;45155;-77
2022/12/13 05:09:33;;;;;;;7.07;4.70;;;15.50;35.80;;;;;;5090349;27;45249;-77
2022/12/13 05:12:00;;;;;;;5.18;4.28;;;15.50;35.90;;;;;;5090059;27;45406;-76
2022/12/13 05:14:27;;;;;;;5.38;4.40;;;15.50;35.80;;;;;;5089701;27;45319;-77
2022/12/13 05:16:55;;;;;;;5.65;4.10;;;15.50;35.70;;;;;;5089599;27;45263;-76
2022/12/13 05:19:22;;;;;;;7.07;4.25;;;15.50;35.70;;;;;;5089611;27;45331;-76
2022/12/13 05:21:49;;;;;;;5.00;4.32;;;15.60;35.70;;;;;;5089462;27;45253;-76
2022/12/13 05:24:16;;;;;;;5.18;4.60;;;15.60;35.70;;;;;;5089513;27;45296;-77
2022/12/13 05:26:43;;;;;;;5.90;4.07;;;15.60;35.60;;;;;;5089940;27;45335;-77
2022/12/13 05:29:10;;;;;;;6.05;4.07;;;15.60;35.60;;;;;;5090031;27;45364;-77
2022/12/13 05:31:37;;;;;;;5.43;4.30;;;15.50;35.60;;;;;;5090101;27;47858;-76
2022/12/13 05:34:05;;;;;;;5.63;4.38;;;15.50;35.60;;;;;;5088935;27;45373;-76
2022/12/13 05:36:32;;;;;;;4.75;4.15;;;15.50;35.60;;;;;;5089125;27;45311;-76
2022/12/13 05:38:58;;;;;;;7.07;4.45;;;15.50;35.70;;;;;;5089775;27;45315;-76
2022/12/13 05:41:25;;;;;;;6.15;4.18;;;15.40;35.70;;;;;;5089313;27;45150;-76
2022/12/13 05:43:52;;;;;;;6.05;4.15;;;15.40;35.60;;;;;;5089321;27;45292;-76
2022/12/13 05:46:19;;;;;;;5.50;4.57;;;15.30;35.70;;;;;;5086644;27;45401;-76
2022/12/13 05:48:46;;;;;;;6.32;4.57;;;15.30;35.80;;;;;;5070367;28;45442;-77
2022/12/13 05:51:14;;;;;;;6.80;4.60;;;15.30;35.90;;;;;;5089291;27;46669;-76
2022/12/13 05:53:41;;;;;;;6.28;4.25;;;15.20;36.50;;;;;;5089008;27;45493;-76
2022/12/13 05:56:08;;;;;;;5.88;4.30;;;15.20;35.90;;;;;;5089341;27;45126;-76
2022/12/13 05:58:36;;;;;;;6.38;4.57;;;15.20;35.90;;;;;;5089461;27;45496;-76
2022/12/13 06:01:07;;;;;;;5.90;4.30;;;15.20;35.90;;;;;;5089053;27;46465;-77
2022/12/13 06:03:33;;;;;;;7.57;4.68;;;15.20;35.90;;;;;;5088712;27;45246;-76
2022/12/13 06:06:01;;;;;;;5.20;4.45;;;15.30;35.90;;;;;;5089804;27;45333;-77
2022/12/13 06:08:29;;;;;;;5.95;4.50;;;15.30;35.80;;;;;;5089072;27;45469;-76
2022/12/13 06:10:57;;;;;;;5.35;4.28;;;15.30;35.80;;;;;;5088759;27;45595;-77
2022/12/13 06:13:24;;;;;;;5.57;4.22;;;15.30;35.70;;;;;;5088693;27;45241;-77
2022/12/13 06:15:51;;;;;;;6.35;3.95;;;15.40;35.70;;;;;;5089506;27;45482;-77
2022/12/13 06:18:18;;;;;;;6.82;4.53;;;15.40;35.60;;;;;;5089147;27;45368;-75
2022/12/13 06:20:45;;;;;;;5.13;4.40;;;15.40;35.50;;;;;;5088200;27;45274;-76
2022/12/13 06:23:12;;;;;;;6.60;4.10;;;15.50;36.10;;;;;;5088813;27;45154;-76
2022/12/13 06:25:41;;;;;;;5.88;4.80;;;15.50;35.40;;;;;;5088964;27;45269;-76
2022/12/13 06:28:08;;;;;;;6.18;4.55;;;15.50;35.40;;;;;;5088972;27;45301;-76
2022/12/13 06:30:35;;;;;;;7.25;4.85;;;15.50;35.40;;;;;;5088980;28;45294;-76
2022/12/13 06:33:02;;;;;;;6.45;4.40;;;15.50;35.30;;;;;;5088665;27;45192;-76
2022/12/13 06:35:29;;;;;;;6.38;4.88;;;15.50;35.30;;;;;;5088654;27;45316;-76
2022/12/13 06:37:56;;;;;;;5.40;4.30;;;15.60;35.30;;;;;;5088892;27;45358;-76
2022/12/13 06:40:23;;;;;;;6.95;5.00;;;15.60;35.30;;;;;;5088427;27;45319;-76
2022/12/13 06:42:51;;;;;;;6.57;4.78;;;15.60;35.30;;;;;;5088722;27;45250;-76
2022/12/13 06:45:18;;;;;;;5.90;4.45;;;15.60;35.30;;;;;;5088663;27;45149;-76
2022/12/13 06:47:45;;;;;;;5.35;4.65;;;15.50;35.20;;;;;;5073883;27;45523;-76
2022/12/13 06:50:12;;;;;;;6.18;4.82;;;15.50;35.30;;;;;;5081013;28;46610;-76
2022/12/13 06:52:39;;;;;;;5.82;4.55;;;15.50;35.40;;;;;;5087933;27;45253;-76
2022/12/13 06:55:06;;;;;;;6.53;4.90;;;15.40;35.40;;;;;;5088689;27;45263;-77
2022/12/13 06:57:33;;;;;;;5.80;4.55;;;15.40;35.40;;;;;;5088043;27;45608;-76
2022/12/13 07:00:03;;;;;;;6.53;4.88;;;15.30;35.50;;;;;;5088661;27;45563;-76
2022/12/13 07:02:31;;;;;;;6.18;4.35;;;15.30;35.60;;;;;;5088628;27;45230;-76
2022/12/13 07:04:58;;;;;;;5.85;4.78;;;15.30;35.60;;;;;;5088237;27;45176;-76
2022/12/13 07:07:25;;;;;;;6.65;4.57;;;15.30;35.60;;;;;;5088613;27;45445;-76
2022/12/13 07:09:51;;;;;;;4.90;4.20;;;15.20;35.70;;;;;;5087961;27;45400;-76
2022/12/13 07:12:19;;;;;;;7.18;4.60;;;15.20;35.70;;;;;;5087621;27;45304;-76
2022/12/13 07:14:46;;;;;;;6.18;4.68;;;15.30;35.70;;;;;;5087624;27;45189;-76
2022/12/13 07:17:14;;;;;;;7.47;4.75;;;15.30;35.70;;;;;;5087388;27;45188;-76
2022/12/13 07:19:41;;;;;;;6.40;4.50;;;15.30;35.60;;;;;;5087613;27;45551;-76
2022/12/13 07:22:08;;;;;;;6.53;4.63;;;15.30;35.50;;;;;;5087580;27;45479;-76
2022/12/13 07:24:35;;;;;;;5.35;4.30;;;15.30;35.50;;;;;;5087913;27;45220;-77
2022/12/13 07:27:02;;;;;;;7.03;4.95;;;15.30;35.40;;;;;;5086986;27;45135;-76
2022/12/13 07:29:29;;;;;;;6.07;4.88;;;15.40;36.10;;;;;;5087535;27;45312;-77
2022/12/13 07:31:56;;;;;;;6.72;4.55;;;15.40;35.40;;;;;;5087420;27;45385;-77
2022/12/13 07:34:24;;;;;;;6.47;4.70;;;15.40;35.30;;;;;;5087653;27;45371;-77
2022/12/13 07:36:51;;;;;;;7.75;5.35;;;15.40;35.20;;;;;;5087784;27;45588;-76
2022/12/13 07:39:17;;;;;;;6.88;4.32;;;15.40;35.20;;;;;;5087504;27;46664;-76
2022/12/13 07:41:45;;;;;;;6.88;5.10;;;15.50;35.20;;;;;;5087440;27;45188;-76
2022/12/13 07:44:12;;;;;;;6.22;4.93;;;15.50;35.20;;;;;;5087583;27;45322;-76
2022/12/13 07:46:39;;;;;;;6.95;4.60;;;15.50;35.20;;;;;;5082033;27;45287;-77
2022/12/13 07:49:05;;;;;;;5.55;4.72;;;15.50;35.10;;;;;;5070790;28;45196;-76
2022/12/13 07:51:34;;;;;;;7.75;4.72;;;15.50;35.10;;;;;;5087518;27;45184;-76
2022/12/13 07:54:01;;;;;;;7.22;5.03;;;15.50;35.10;;;;;;5087242;27;45951;-76
2022/12/13 07:56:28;;;;;;;5.55;4.95;;;15.50;35.10;;;;;;5087463;27;45298;-77
2022/12/13 07:58:55;;;;;;;6.22;4.75;;;15.50;35.10;;;;;;5086989;27;45453;-77
2022/12/13 08:01:22;;;;;;;6.18;4.85;;;15.50;35.10;;;;;;5087032;27;45245;-76
2022/12/13 08:03:49;;;;;;;6.80;4.80;;;15.50;35.10;;;;;;5087538;27;45350;-76
2022/12/13 08:06:18;;;;;;;5.43;4.50;;;15.50;35.10;;;;;;5087565;27;45459;-76
2022/12/13 08:08:49;;;;;;;7.03;4.50;;;15.40;35.20;;;;;;5086634;27;45663;-76
2022/12/13 08:11:16;;;;;;;5.75;4.65;;;15.40;35.20;;;;;;5086160;27;45338;-76
2022/12/13 08:13:43;;;;;;;5.60;4.65;;;15.30;35.20;;;;;;5087102;27;45233;-77
2022/12/13 08:16:11;;;;;;;6.68;4.50;;;15.30;35.30;;;;;;5087122;27;45328;-77
2022/12/13 08:18:39;;;;;;;5.53;4.43;;;15.30;35.30;;;;;;5086730;27;46897;-76
2022/12/13 08:21:06;;;;;;;6.38;4.55;;;15.30;35.40;;;;;;5086759;27;45299;-76
2022/12/13 08:23:33;;;;;;;6.47;5.05;;;15.30;35.40;;;;;;5087073;27;45371;-76
2022/12/13 08:26:02;;;;;;;6.65;4.75;;;15.30;35.40;;;;;;5087078;27;45552;-76
2022/12/13 08:28:29;;;;;;;11.02;5.03;;;15.30;35.40;;;;;;5089656;27;45865;-79
2022/12/13 08:31:02;;;;;;;6.35;5.00;;;15.30;37.30;;;;;;5090308;27;45325;-76
2022/12/13 08:33:29;;;;;;;9.93;5.57;;;15.30;38.00;;;;;;5090402;27;45196;-74
2022/12/13 08:35:57;;;;;;;9.05;5.35;;;15.40;36.90;;;;;;5090371;27;45472;-74
2022/12/13 08:38:25;;;;;;;6.18;4.90;;;15.40;38.30;;;;;;5089898;27;46910;-73
2022/12/13 08:40:52;;;;;;;7.07;5.28;;;15.50;36.80;;;;;;5089930;27;45198;-73
2022/12/13 08:43:20;;;;;;;9.88;5.60;;;15.60;36.60;;;;;;5090191;27;45199;-75
2022/12/13 08:45:49;;;;;;;6.95;5.47;;;15.60;35.80;;;;;;5090271;27;45295;-76
2022/12/13 08:48:16;;;;;;;8.25;5.97;;;15.60;35.60;;;;;;5070794;27;45193;-77
2022/12/13 08:50:43;;;;;;;7.57;5.55;;;15.70;35.70;;;;;;5087103;28;45168;-75
2022/12/13 08:53:10;;;;;;;9.90;6.03;;;15.70;35.50;;;;;;5089473;27;45146;-72
2022/12/13 08:55:37;;;;;;;9.90;6.30;;;15.70;35.40;;;;;;5090001;27;45327;-71
2022/12/13 08:58:07;;;;;;;8.43;6.40;;;15.70;35.60;;;;;;5088647;27;45371;-72
2022/12/13 09:00:35;;;;;;;10.50;6.20;;;15.60;35.30;;;;;;5089074;27;45128;-73
2022/12/13 09:03:02;;;;;;;9.95;5.47;;;15.70;35.80;;;;;;5089771;27;45138;-70
2022/12/13 09:05:29;;;;;;;7.20;5.20;;;15.70;36.20;;;;;;5089873;27;45317;-72
2022/12/13 09:07:57;;;;;;;10.75;6.57;;;15.70;36.00;;;;;;5089499;27;45317;-75
2022/12/13 09:10:23;;;;;;;9.35;6.68;;;15.70;35.90;;;;;;5089500;27;45193;-71
2022/12/13 09:12:50;;;;;;;8.95;7.38;;;15.70;36.10;;;;;;5089577;27;45379;-70
2022/12/13 09:15:17;;;;;;;9.18;6.32;;;15.70;35.90;;;;;;5089754;27;45398;-72
2022/12/13 09:17:46;;;;;;;7.70;5.75;;;15.70;35.80;;;;;;5089161;27;46586;-71
2022/12/13 09:20:12;;;;;;;14.77;7.10;;;15.80;35.60;;;;;;5089058;27;45269;-76
2022/12/13 09:22:40;;;;;;;15.10;7.10;;;15.70;36.00;;;;;;5089406;27;45282;-74
2022/12/13 09:25:08;;;;;;;12.32;6.25;;;15.60;35.90;;;;;;5089449;27;45322;-74
2022/12/13 09:27:34;;;;;;;9.82;6.57;;;15.60;35.90;;;;;;5089123;27;46611;-73
2022/12/13 09:30:01;;;;;;;8.27;6.53;;;15.50;36.00;;;;;;5089285;27;45156;-73
2022/12/13 09:32:28;;;;;;;11.18;6.90;;;15.50;36.70;;;;;;5089355;27;45221;-75
2022/12/13 09:34:56;;;;;;;11.30;6.97;;;15.40;36.10;;;;;;5089200;27;45455;-73
2022/12/13 09:37:23;;;;;;;10.40;6.93;;;15.40;36.30;;;;;;5089086;27;46396;-75
2022/12/13 09:39:50;;;;;;;12.57;7.25;;;15.40;36.30;;;;;;5088321;27;45315;-72
2022/12/13 09:42:19;;;;;;;12.02;7.05;;;15.50;36.70;;;;;;5088464;27;45220;-76
2022/12/13 09:44:49;;;;;;;11.18;7.55;;;15.60;36.20;;;;;;5088461;27;45481;-71
2022/12/13 09:47:18;;;;;;;10.57;7.20;;;15.60;35.90;;;;;;5077880;27;45576;-73
2022/12/13 09:49:45;;;;;;;9.15;6.82;;;15.70;36.00;;;;;;5077863;28;45264;-73
2022/12/13 09:52:15;;;;;;;9.43;6.40;;;15.80;36.00;;;;;;5089162;27;45425;-73
2022/12/13 09:54:42;;;;;;;10.02;6.07;;;15.80;35.90;;;;;;5089060;27;44801;-77
2022/12/13 09:57:10;;;;;;;9.15;6.35;;;15.90;35.90;;;;;;5088611;27;46396;-77
2022/12/13 09:59:36;;;;;;;8.10;6.18;;;16.00;35.80;;;;;;5088903;27;45274;-77
2022/12/13 10:02:12;;;;;;;8.02;5.47;;;16.00;36.40;;;;;;5089127;27;45382;-77
2022/12/13 10:04:40;;;;;;;7.65;5.78;;;16.10;35.70;;;;;;5089260;27;45318;-76
2022/12/13 10:07:10;;;;;;;8.57;5.72;;;16.10;35.60;;;;;;5088595;27;46499;-76
2022/12/13 10:09:38;;;;;;;6.97;5.00;;;16.20;35.60;;;;;;5089027;27;45237;-77
2022/12/13 10:12:05;;;;;;;7.90;5.40;;;16.30;35.60;;;;;;5088938;27;45314;-77
2022/12/13 10:14:36;;;;;;;6.60;5.10;;;16.30;35.50;;;;;;5089315;27;45193;-77
2022/12/13 10:17:03;;;;;;;6.07;4.82;;;16.30;35.50;;;;;;5089460;27;45316;-77
2022/12/13 10:19:34;;;;;;;6.85;4.97;;;16.30;35.50;;;;;;5089426;27;45272;-77
2022/12/13 10:22:01;;;;;;;6.38;5.05;;;16.30;35.50;;;;;;5089934;27;45332;-77
2022/12/13 10:24:30;;;;;;;6.35;5.20;;;16.30;35.50;;;;;;5089024;27;45386;-77
2022/12/13 10:26:59;;;;;;;6.32;4.45;;;16.30;35.50;;;;;;5088992;27;46335;-76
2022/12/13 10:29:26;;;;;;;6.95;5.57;;;16.30;35.60;;;;;;5088680;27;45302;-77
2022/12/13 10:31:53;;;;;;;5.15;4.65;;;16.30;35.50;;;;;;5088471;27;45428;-77
2022/12/13 10:34:24;;;;;;;7.22;4.68;;;16.20;35.50;;;;;;5088717;27;45292;-76
2022/12/13 10:36:51;;;;;;;6.32;5.05;;;16.20;35.50;;;;;;5087870;27;45711;-76
2022/12/13 10:39:19;;;;;;;6.93;4.68;;;16.20;35.60;;;;;;5087872;27;45315;-76
2022/12/13 10:41:46;;;;;;;5.30;4.30;;;16.10;35.60;;;;;;5088433;27;45242;-76
2022/12/13 10:44:23;;;;;;;7.22;4.88;;;16.10;35.60;;;;;;5088490;27;45183;-76
2022/12/13 10:47:00;;;;;;;6.10;4.70;;;16.10;35.80;;;;;;5081252;27;45675;-76
2022/12/13 10:49:32;;;;;;;5.20;4.35;;;16.00;35.80;;;;;;5074521;28;45292;-76
2022/12/13 10:51:59;;;;;;;5.97;4.78;;;16.00;35.90;;;;;;5088220;27;45203;-76
2022/12/13 10:54:27;;;;;;;5.88;4.80;;;15.90;35.90;;;;;;5087940;27;45404;-76
2022/12/13 10:56:58;;;;;;;7.28;4.30;;;15.90;36.00;;;;;;5087832;27;45429;-76
2022/12/13 10:59:31;;;;;;;6.10;4.78;;;15.80;36.00;;;;;;5087698;27;45192;-76
2022/12/13 11:01:58;;;;;;;5.13;4.30;;;15.70;36.10;;;;;;5088248;27;45311;-76
2022/12/13 11:04:28;;;;;;;5.00;4.25;;;15.70;36.20;;;;;;5088365;27;45184;-76
2022/12/13 11:06:55;;;;;;;6.03;4.53;;;15.60;36.20;;;;;;5087707;27;46526;-76
2022/12/13 11:09:27;;;;;;;5.72;4.70;;;15.60;36.40;;;;;;5087913;27;45260;-76
2022/12/13 11:11:55;;;;;;;5.05;4.25;;;15.50;36.40;;;;;;5087906;27;45310;-76
2022/12/13 11:14:24;;;;;;;5.43;4.22;;;15.50;36.40;;;;;;5088087;27;45261;-76
2022/12/13 11:16:55;;;;;;;6.40;4.97;;;15.40;36.50;;;;;;5087483;27;46784;-76
2022/12/13 11:19:25;;;;;;;4.88;4.10;;;15.40;36.60;;;;;;5087638;27;45264;-75
2022/12/13 11:21:53;;;;;;;5.00;4.20;;;15.30;36.70;;;;;;5088027;27;45309;-76
2022/12/13 11:24:21;;;;;;;5.68;4.18;;;15.30;36.70;;;;;;5087939;27;45271;-76
2022/12/13 11:26:49;;;;;;;5.50;4.30;;;15.20;36.70;;;;;;5087315;27;45271;-76
2022/12/13 11:29:28;;;;;;;4.50;4.10;;;15.20;36.80;;;;;;5087632;27;45244;-76
2022/12/13 11:32:00;;;;;;;6.05;4.18;;;15.20;36.90;;;;;;5087672;27;45255;-75
2022/12/13 11:34:31;;;;;;;5.30;3.83;;;15.10;36.80;;;;;;5087938;27;45383;-75
2022/12/13 11:37:01;;;;;;;5.13;4.00;;;15.10;36.90;;;;;;5087324;27;45486;-76
2022/12/13 11:39:30;;;;;;;5.07;4.00;;;15.10;36.90;;;;;;5087347;27;45276;-76
2022/12/13 11:41:58;;;;;;;4.70;4.20;;;15.10;36.90;;;;;;5087618;27;45236;-77
2022/12/13 11:44:29;;;;;;;5.55;3.88;;;15.10;36.80;;;;;;5086865;27;45200;-76
2022/12/13 11:46:59;;;;;;;5.40;3.70;;;15.20;36.80;;;;;;5078668;28;45588;-76
2022/12/13 11:49:32;;;;;;;5.32;4.28;;;15.20;37.40;;;;;;5073731;28;45198;-76
2022/12/13 11:52:01;;;;;;;3.92;3.47;;;15.30;36.70;;;;;;5087527;27;45188;-76
2022/12/13 11:54:30;;;;;;;5.50;3.60;;;15.30;36.60;;;;;;5087152;27;45633;-76
2022/12/13 11:56:58;;;;;;;4.43;3.42;;;15.50;36.60;;;;;;5086914;27;46689;-76
2022/12/13 11:59:27;;;;;;;5.03;3.58;;;15.50;36.40;;;;;;5086906;27;45284;-76
2022/12/13 12:01:55;;;;;;;5.43;3.80;;;15.50;36.40;;;;;;5086901;27;45336;-76
2022/12/13 12:04:27;;;;;;;4.20;3.42;;;15.60;36.40;;;;;;5087214;27;45500;-76
2022/12/13 12:06:55;;;;;;;4.57;3.63;;;15.60;36.30;;;;;;5086568;27;45456;-76
2022/12/13 12:09:24;;;;;;;4.35;3.47;;;15.60;36.20;;;;;;5086952;27;45263;-76
2022/12/13 12:11:53;;;;;;;3.60;2.95;;;15.60;36.30;;;;;;5087242;27;45214;-76
2022/12/13 12:14:22;;;;;;;5.95;3.78;;;15.70;36.30;;;;;;5087205;27;45394;-76
2022/12/13 12:16:51;;;;;;;6.25;3.95;;;15.60;36.30;;;;;;5087064;27;47090;-76
2022/12/13 12:19:19;;;;;;;4.68;3.78;;;15.60;36.30;;;;;;5086792;27;45317;-76
2022/12/13 12:21:56;;;;;;;3.83;3.40;;;15.60;36.30;;;;;;5086915;27;45281;-75
2022/12/13 12:24:25;;;;;;;4.88;3.85;;;15.60;36.40;;;;;;5087220;27;45255;-76
2022/12/13 12:26:57;;;;;;;5.30;4.03;;;15.60;36.40;;;;;;5086590;27;46454;-76
2022/12/13 12:29:38;;;;;;;4.30;3.60;;;15.60;36.40;;;;;;5086765;27;45210;-76
2022/12/13 12:32:07;;;;;;;4.40;3.63;;;15.50;36.30;;;;;;5087014;27;45303;-76
2022/12/13 12:34:36;;;;;;;6.05;3.92;;;15.50;36.40;;;;;;5086770;27;45451;-76
2022/12/13 12:37:09;;;;;;;4.03;3.33;;;15.50;36.50;;;;;;5086584;27;46466;-76
2022/12/13 12:39:44;;;;;;;4.43;3.42;;;15.40;36.50;;;;;;5086422;27;45246;-76
2022/12/13 12:42:22;;;;;;;4.78;3.65;;;15.40;36.60;;;;;;5086676;27;45201;-75
2022/12/13 12:44:57;;;;;;;4.78;3.53;;;15.40;36.70;;;;;;5086975;27;45402;-76
2022/12/13 12:47:34;;;;;;;5.38;3.72;;;15.30;36.70;;;;;;5074481;27;46633;-75
2022/12/13 12:50:18;;;;;;;4.93;3.50;;;15.20;36.70;;;;;;5077832;28;45310;-75
2022/12/13 12:52:55;;;;;;;5.60;3.53;;;15.20;36.80;;;;;;5086440;27;45329;-75
2022/12/13 12:55:28;;;;;;;4.55;3.53;;;15.20;36.80;;;;;;5086582;27;45550;-76
2022/12/13 12:57:59;;;;;;;4.30;3.55;;;15.10;37.40;;;;;;5086168;27;45284;-75